Time;durP1;ratioP1;P1;durP2;ratioP2;P2;SDS_P1;SDS_P2;PMS_P1;PMS_P2;Temp;Humidity;BMP_temperature;BMP_pressure;BME280_temperature;BME280_humidity;BME280_pressure;Samples;Min_cycle;Max_cycle;Signal;HPM_P1;HPM_P2
2023/05/10 00:01:04;;;;;;;9.83;8.83;;;;;;;13.77;100.00;101403.63;5019292;28;20189;-68
2023/05/10 00:03:29;;;;;;;9.60;8.77;;;;;;;13.52;100.00;101335.16;5019438;28;20259;-68
2023/05/10 00:05:54;;;;;;;9.23;8.43;;;;;;;13.76;100.00;101398.41;5019921;28;20212;-68
2023/05/10 00:08:20;;;;;;;9.00;8.20;;;;;;;13.72;100.00;101384.53;5020667;28;20295;-68
2023/05/10 00:10:45;;;;;;;10.43;9.53;;;;;;;13.49;100.00;101365.22;5024772;28;20541;-68
2023/05/10 00:13:11;;;;;;;8.60;7.80;;;;;;;13.71;100.00;101390.97;5020425;28;20217;-68
2023/05/10 00:15:36;;;;;;;8.87;8.07;;;;;;;13.66;100.00;101376.44;5018873;28;20736;-68
2023/05/10 00:18:02;;;;;;;9.10;8.37;;;;;;;13.67;100.00;101370.00;5020839;28;20191;-68
2023/05/10 00:20:27;;;;;;;9.20;8.40;;;;;;;13.68;100.00;101367.13;5020017;28;20702;-68
2023/05/10 00:22:53;;;;;;;8.73;7.93;;;;;;;13.50;100.00;101354.22;5020188;28;20191;-68
2023/05/10 00:25:18;;;;;;;9.87;8.97;;;;;;;13.56;100.00;101366.03;5021512;28;20188;-68
2023/05/10 00:27:44;;;;;;;9.23;8.43;;;;;;;13.43;100.00;101328.31;5021044;28;20209;-68
2023/05/10 00:30:09;;;;;;;9.43;8.53;;;;;;;13.81;100.00;101373.53;5021663;28;20187;-68
2023/05/10 00:32:35;;;;;;;9.13;8.33;;;;;;;13.66;100.00;101381.81;5023264;28;20209;-68
2023/05/10 00:35:00;;;;;;;8.53;7.83;;;;;;;13.85;100.00;101388.25;5020906;28;20188;-68
2023/05/10 00:37:26;;;;;;;9.57;8.77;;;;;;;13.66;100.00;101395.31;5020247;28;20209;-68
2023/05/10 00:39:51;;;;;;;9.20;8.40;;;;;;;13.72;100.00;101389.91;5020794;28;20242;-68
2023/05/10 00:42:16;;;;;;;9.53;8.73;;;;;;;13.76;100.00;101396.53;5021649;28;20253;-69
2023/05/10 00:44:42;;;;;;;9.13;8.33;;;;;;;13.47;100.00;101349.22;5020724;28;20195;-69
2023/05/10 00:47:08;;;;;;;9.57;8.77;;;;;;;13.68;100.00;101388.69;5018644;28;20223;-69
2023/05/10 00:49:35;;;;;;;11.17;10.17;;;;;;;13.50;100.00;101401.91;5014672;28;20198;-69
2023/05/10 00:52:01;;;;;;;9.43;8.60;;;;;;;13.66;100.00;101406.91;5015104;28;20502;-69
2023/05/10 00:54:27;;;;;;;8.70;7.90;;;;;;;13.77;100.00;101410.88;5016361;28;20901;-69
2023/05/10 00:56:53;;;;;;;9.50;8.60;;;;;;;13.65;100.00;101363.97;5015129;28;20470;-69
2023/05/10 00:59:19;;;;;;;8.50;7.77;;;;;;;13.58;100.00;101366.66;5016633;28;20219;-70
2023/05/10 01:01:45;;;;;;;8.23;7.53;;;;;;;13.78;100.00;101364.81;5021267;28;20184;-70
2023/05/10 01:04:13;;;;;;;10.40;9.50;;;;;;;13.61;100.00;101363.56;5016275;28;20839;-69
2023/05/10 01:06:40;;;;;;;10.73;9.73;;;;;;;13.33;100.00;101326.00;5015957;28;20470;-70
2023/05/10 01:09:06;;;;;;;10.53;9.60;;;;;;;13.62;100.00;101359.81;5019042;28;20439;-69
2023/05/10 01:11:34;;;;;;;10.17;9.27;;;;;;;13.67;100.00;101354.66;5013451;28;21059;-69
2023/05/10 01:13:59;;;;;;;10.10;9.20;;;;;;;13.51;100.00;101328.09;5018414;28;20533;-69
2023/05/10 01:16:27;;;;;;;10.10;9.20;;;;;;;13.60;100.00;101353.81;5016706;28;20583;-69
2023/05/10 01:18:52;;;;;;;10.70;9.70;;;;;;;13.42;100.00;101337.41;5014928;28;20185;-69
2023/05/10 01:21:47;;;;;;;9.87;8.97;;;;;;;13.54;100.00;101355.47;5015104;28;20516;-69
2023/05/10 01:24:39;;;;;;;10.73;9.83;;;;;;;11.63;100.00;101071.28;5025220;23;20942;-79
2023/05/10 01:27:20;;;;;;;12.20;11.10;;;;;;;13.50;100.00;101359.59;4999773;28;20962;-79
2023/05/10 01:30:30;;;;;;;10.97;9.83;;;;;;;13.42;100.00;101340.94;5000567;28;20439;-79
2023/05/10 01:33:01;;;;;;;10.90;9.90;;;;;;;13.57;100.00;101360.47;4981323;28;20475;-79
2023/05/10 01:36:02;;;;;;;11.97;10.77;;;;;;;11.85;100.00;101098.88;4995877;28;20463;-79
2023/05/10 01:38:59;;;;;;;11.90;10.80;;;;;;;13.60;100.00;101369.16;4950102;28;20446;-79
2023/05/10 01:41:46;;;;;;;8.70;7.90;;;;;;;11.85;100.00;101123.94;4999885;28;20428;-78
2023/05/10 01:44:37;;;;;;;9.70;8.90;;;;;;;10.70;100.00;100968.75;5000596;28;20964;-79
2023/05/10 01:47:30;;;;;;;7.03;6.43;;;;;;;13.48;100.00;101388.66;5002945;28;20451;-79
2023/05/10 01:50:01;;;;;;;5.83;5.33;;;;;;;11.69;100.00;101122.38;4998901;28;20448;-79
2023/05/10 01:52:32;;;;;;;5.87;5.37;;;;;;;13.40;100.00;101386.13;5000206;28;20927;-79
2023/05/10 01:55:15;;;;;;;6.13;5.53;;;;;;;11.14;100.00;101054.31;4997255;28;20456;-79
2023/05/10 01:57:43;;;;;;;4.70;4.30;;;;;;;11.81;100.00;101164.81;4999292;28;20510;-78
2023/05/10 02:00:10;;;;;;;5.27;4.77;;;;;;;11.12;100.00;101017.94;5000460;28;20949;-79
2023/05/10 02:02:42;;;;;;;6.40;5.90;;;;;;;11.96;100.00;101162.84;4999376;28;20479;-79
2023/05/10 02:05:09;;;;;;;6.07;5.57;;;;;;;12.33;100.00;101244.94;5002475;28;21010;-79
2023/05/10 02:07:36;;;;;;;6.37;5.80;;;;;;;11.37;100.00;101085.41;4996385;28;20570;-79
2023/05/10 02:10:04;;;;;;;6.53;6.00;;;;;;;11.99;100.00;101192.03;4999189;28;20440;-79
2023/05/10 02:12:32;;;;;;;6.50;6.00;;;;;;;11.83;100.00;101158.22;5000840;28;20441;-78
2023/05/10 02:15:01;;;;;;;5.20;4.80;;;;;;;11.73;100.00;101109.38;4999670;28;20476;-79
2023/05/10 02:17:28;;;;;;;5.47;5.00;;;;;;;12.22;100.00;101215.91;5013799;28;20563;-79
2023/05/10 02:19:56;;;;;;;5.90;5.40;;;;;;;11.49;100.00;101044.38;4995756;28;20451;-79
2023/05/10 02:22:24;;;;;;;6.40;5.80;;;;;;;13.24;100.00;101309.16;5000725;28;20491;-78
2023/05/10 02:24:50;;;;;;;6.40;5.90;;;;;;;13.21;100.00;101320.34;5022565;28;20987;-79
2023/05/10 02:27:18;;;;;;;5.90;5.40;;;;;;;12.80;100.00;101263.94;5002031;28;20971;-79
2023/05/10 02:29:44;;;;;;;6.03;5.57;;;;;;;12.32;100.00;101181.38;5001029;28;20448;-78
2023/05/10 02:32:11;;;;;;;6.43;5.83;;;;;;;12.60;100.00;101253.09;5003276;28;20424;-79
2023/05/10 02:34:38;;;;;;;6.70;6.20;;;;;;;13.14;100.00;101316.84;5000990;28;20463;-79
2023/05/10 02:37:05;;;;;;;6.13;5.63;;;;;;;13.07;100.00;101275.56;5003471;28;20421;-79
2023/05/10 02:39:32;;;;;;;5.50;5.10;;;;;;;13.13;100.00;101296.31;5002942;28;20439;-79
2023/05/10 02:41:58;;;;;;;5.67;5.17;;;;;;;13.27;100.00;101283.72;5003926;28;20456;-81
2023/05/10 02:44:27;;;;;;;5.40;4.90;;;;;;;13.05;100.00;101246.19;5002550;28;20443;-79
2023/05/10 02:46:55;;;;;;;6.47;5.87;;;;;;;12.49;100.00;101202.56;5000310;28;20462;-79
2023/05/10 02:49:21;;;;;;;5.87;5.37;;;;;;;12.64;100.00;101200.53;5006213;28;20444;-78
2023/05/10 02:51:54;;;;;;;5.83;5.33;;;;;;;12.92;100.00;101227.28;4998824;28;20447;-78
2023/05/10 02:54:27;;;;;;;5.93;5.43;;;;;;;12.62;100.00;101206.13;5000746;28;20212;-79
2023/05/10 02:56:57;;;;;;;4.90;4.50;;;;;;;13.04;100.00;101246.38;5000741;28;20447;-78
2023/05/10 02:59:23;;;;;;;5.70;5.20;;;;;;;12.76;100.00;101204.28;4997718;28;20457;-80
2023/05/10 03:01:48;;;;;;;6.20;5.70;;;;;;;12.79;100.00;101238.88;5001783;28;20502;-80
2023/05/10 03:04:14;;;;;;;6.43;5.87;;;;;;;12.92;100.00;101232.69;4999059;28;20578;-79
2023/05/10 03:06:40;;;;;;;6.13;5.53;;;;;;;13.06;100.00;101220.91;4998660;28;20620;-79
2023/05/10 03:09:07;;;;;;;6.07;5.50;;;;;;;12.88;100.00;101240.34;4997343;28;20534;-79
2023/05/10 03:11:56;;;;;;;6.60;5.30;;;;;;;13.09;100.00;101219.66;5001993;28;20189;-80
2023/05/10 03:14:32;;;;;;;6.50;5.80;;;;;;;12.58;100.00;101143.00;4999888;28;20463;-80
2023/05/10 03:17:10;;;;;;;6.47;5.97;;;;;;;12.95;100.00;101226.88;4997349;28;20435;-79
2023/05/10 03:20:04;;;;;;;6.60;6.03;;;;;;;12.89;100.00;101228.53;5001807;28;20479;-79
2023/05/10 03:22:38;;;;;;;6.23;5.30;;;;;;;12.75;100.00;101188.34;4997207;28;20467;-80
2023/05/10 03:25:10;;;;;;;6.33;5.83;;;;;;;12.88;100.00;101226.06;5001577;28;20472;-79
2023/05/10 03:27:38;;;;;;;5.83;5.33;;;;;;;12.83;100.00;101174.69;5001709;28;20582;-78
2023/05/10 03:30:13;;;;;;;6.53;5.97;;;;;;;13.12;100.00;101200.38;4998457;28;20463;-78
2023/05/10 03:32:38;;;;;;;5.80;5.30;;;;;;;12.83;100.00;101172.81;5004222;28;20474;-79
2023/05/10 03:35:12;;;;;;;5.73;5.23;;;;;;;12.76;100.00;101161.22;5003172;28;20589;-79
2023/05/10 03:37:38;;;;;;;6.37;5.77;;;;;;;12.86;100.00;101177.78;5005627;28;20184;-80
2023/05/10 03:40:04;;;;;;;6.70;6.10;;;;;;;12.58;100.00;101120.59;5003531;28;20444;-80
2023/05/10 03:42:30;;;;;;;5.70;5.10;;;;;;;12.67;100.00;101130.16;5004211;28;20288;-79
2023/05/10 03:44:56;;;;;;;7.53;6.83;;;;;;;12.82;100.00;101191.88;5004792;28;20562;-79
2023/05/10 03:47:21;;;;;;;7.17;6.57;;;;;;;12.83;100.00;101188.16;5003694;28;20272;-79
2023/05/10 03:49:46;;;;;;;5.77;5.27;;;;;;;12.78;100.00;101166.38;5004755;28;20533;-79
2023/05/10 03:52:12;;;;;;;6.50;5.93;;;;;;;12.91;100.00;101190.66;5002033;28;20181;-79
2023/05/10 03:54:37;;;;;;;6.33;5.83;;;;;;;12.31;100.00;101074.03;5002981;28;20216;-79
2023/05/10 03:57:03;;;;;;;6.23;5.73;;;;;;;12.72;100.00;101134.91;5001986;28;20271;-79
2023/05/10 03:59:29;;;;;;;5.53;5.03;;;;;;;12.29;100.00;101076.06;5004777;28;20208;-80
2023/05/10 04:01:55;;;;;;;7.60;5.13;;;;;;;12.22;100.00;101097.59;5006801;28;20459;-79
2023/05/10 04:04:21;;;;;;;5.20;4.80;;;;;;;12.85;100.00;101180.69;5002686;28;20212;-79
2023/05/10 04:06:47;;;;;;;6.80;4.87;;;;;;;12.68;100.00;101172.19;5000951;28;20211;-78
2023/05/10 04:09:12;;;;;;;5.80;5.30;;;;;;;12.74;100.00;101170.53;5002531;28;20447;-79
2023/05/10 04:11:37;;;;;;;5.67;5.17;;;;;;;12.33;100.00;101072.78;5001883;28;20213;-79
2023/05/10 04:14:03;;;;;;;5.20;4.80;;;;;;;12.78;100.00;101124.16;5003564;28;20209;-80
2023/05/10 04:16:28;;;;;;;5.17;4.77;;;;;;;12.37;100.00;101057.06;5004075;28;20221;-79
2023/05/10 04:18:54;;;;;;;4.83;4.40;;;;;;;12.84;100.00;101146.72;5018378;28;20185;-80
2023/05/10 04:21:19;;;;;;;5.20;4.70;;;;;;;12.84;100.00;101138.66;5005756;28;20196;-79
2023/05/10 04:23:45;;;;;;;4.13;3.83;;;;;;;12.78;100.00;101129.53;5003928;28;20213;-79
2023/05/10 04:26:10;;;;;;;5.33;4.87;;;;;;;12.20;100.00;101041.31;5004696;28;20184;-79
2023/05/10 04:28:35;;;;;;;5.37;4.97;;;;;;;12.43;100.00;101089.34;5003592;28;20715;-79
2023/05/10 04:31:05;;;;;;;5.13;4.73;;;;;;;12.81;100.00;101128.28;5002058;28;20214;-79
2023/05/10 04:33:31;;;;;;;5.17;4.67;;;;;;;12.97;100.00;101122.50;5003394;28;20702;-78
2023/05/10 04:35:57;;;;;;;5.60;5.10;;;;;;;12.38;100.00;101031.81;5006072;28;20440;-79
2023/05/10 04:38:22;;;;;;;4.63;4.23;;;;;;;12.48;100.00;101079.84;5006916;28;20770;-79
2023/05/10 04:40:48;;;;;;;4.87;4.47;;;;;;;12.64;100.00;101074.03;5004368;28;20559;-80
2023/05/10 04:43:13;;;;;;;4.17;3.70;;;;;;;13.00;100.00;101114.00;5005755;28;20216;-79
2023/05/10 04:45:39;;;;;;;5.50;4.83;;;;;;;11.90;100.00;100946.75;5002803;28;20605;-79
2023/05/10 04:48:05;;;;;;;5.20;4.70;;;;;;;13.01;100.00;101104.06;5006011;28;20405;-79
2023/05/10 04:50:31;;;;;;;5.40;4.90;;;;;;;13.10;100.00;101111.75;5004977;28;20641;-79
2023/05/10 04:52:56;;;;;;;5.23;4.83;;;;;;;13.05;100.00;101116.09;5004610;28;20502;-79
2023/05/10 04:55:22;;;;;;;4.63;4.27;;;;;;;13.15;100.00;101112.97;5004085;28;20548;-79
2023/05/10 04:57:47;;;;;;;5.57;4.57;;;;;;;12.71;100.00;101047.97;5003946;28;20185;-79
2023/05/10 05:00:13;;;;;;;4.50;4.10;;;;;;;13.12;100.00;101109.66;5005422;28;20602;-79
2023/05/10 05:02:43;;;;;;;5.40;4.93;;;;;;;12.33;100.00;100993.97;5003898;28;20208;-79
2023/05/10 05:05:08;;;;;;;4.93;4.50;;;;;;;12.91;100.00;101095.59;5001188;28;20292;-79
2023/05/10 05:07:34;;;;;;;4.60;4.20;;;;;;;12.52;100.00;101048.78;5003702;28;20531;-79
2023/05/10 05:09:59;;;;;;;5.00;4.60;;;;;;;12.68;100.00;101064.53;5002990;28;20180;-79
2023/05/10 05:12:24;;;;;;;5.87;5.27;;;;;;;12.66;100.00;101071.97;5003316;28;20218;-79
2023/05/10 05:14:50;;;;;;;5.83;5.33;;;;;;;12.64;100.00;101044.44;5001286;28;20205;-78
2023/05/10 05:17:15;;;;;;;5.90;5.30;;;;;;;13.04;100.00;101107.16;5001671;28;20650;-78
2023/05/10 05:19:41;;;;;;;6.17;5.57;;;;;;;12.62;100.00;101070.75;5000264;28;20193;-79
2023/05/10 05:22:07;;;;;;;6.57;5.97;;;;;;;13.01;100.00;101102.19;5001254;28;20217;-78
2023/05/10 05:24:39;;;;;;;7.00;6.40;;;;;;;12.94;100.00;101096.00;5001707;28;20261;-78
2023/05/10 05:27:05;;;;;;;7.33;6.73;;;;;;;12.86;100.00;101091.66;4999778;28;20501;-79
2023/05/10 05:29:31;;;;;;;7.83;7.13;;;;;;;12.82;100.00;101108.44;5005735;28;20541;-80
2023/05/10 05:31:56;;;;;;;7.53;6.83;;;;;;;12.45;100.00;101056.88;5001666;28;20921;-79
2023/05/10 05:34:22;;;;;;;6.60;6.00;;;;;;;12.02;100.00;100989.16;4995252;28;20222;-79
2023/05/10 05:36:48;;;;;;;6.43;5.80;;;;;;;13.04;100.00;101128.69;4999172;28;20193;-79
2023/05/10 05:39:13;;;;;;;6.23;5.63;;;;;;;12.92;100.00;101102.63;5003448;28;20654;-79
2023/05/10 05:41:39;;;;;;;7.67;5.87;;;;;;;12.81;100.00;101094.13;5003048;28;20447;-80
2023/05/10 05:44:04;;;;;;;6.40;5.80;;;;;;;12.68;100.00;101075.28;5003777;28;20209;-79
2023/05/10 05:46:30;;;;;;;7.43;6.60;;;;;;;11.86;100.00;100958.97;5004647;28;20283;-80
2023/05/10 05:48:56;;;;;;;6.83;5.60;;;;;;;12.89;100.00;101103.88;5003316;28;20638;-79
2023/05/10 05:51:21;;;;;;;6.60;5.97;;;;;;;12.89;100.00;101099.31;5004403;28;20192;-79
2023/05/10 05:53:46;;;;;;;8.00;6.80;;;;;;;12.52;100.00;101071.13;5002871;28;20211;-80
2023/05/10 05:56:12;;;;;;;8.30;7.50;;;;;;;12.94;100.00;101104.06;5002874;28;20228;-79
2023/05/10 05:58:37;;;;;;;6.67;6.03;;;;;;;13.06;100.00;101112.34;5004773;28;20239;-79
2023/05/10 06:01:03;;;;;;;9.00;7.10;;;;;;;13.04;100.00;101107.16;5003861;28;20283;-80
2023/05/10 06:03:28;;;;;;;7.73;7.00;;;;;;;12.51;100.00;101009.47;5003912;28;20705;-80
2023/05/10 06:05:53;;;;;;;8.47;6.90;;;;;;;12.26;100.00;101022.69;5003964;28;20277;-80
2023/05/10 06:08:20;;;;;;;7.00;6.30;;;;;;;12.39;100.00;101015.47;5004290;28;20185;-79
2023/05/10 06:10:45;;;;;;;5.83;5.23;;;;;;;12.18;100.00;100972.66;5001554;28;20668;-79
2023/05/10 06:13:11;;;;;;;4.73;4.33;;;;;;;12.77;100.00;101074.06;5002620;28;20507;-79
2023/05/10 06:15:36;;;;;;;6.00;4.40;;;;;;;12.49;100.00;101068.84;5002926;28;20207;-79
2023/05/10 06:18:02;;;;;;;4.10;3.70;;;;;;;13.10;100.00;101116.28;5004765;28;20548;-79
2023/05/10 06:20:27;;;;;;;4.80;4.30;;;;;;;12.49;100.00;101025.81;5003898;28;20657;-78
2023/05/10 06:22:53;;;;;;;7.83;3.63;;;;;;;12.69;100.00;101047.34;5003519;28;20276;-79
2023/05/10 06:25:18;;;;;;;4.07;3.30;;;;;;;12.40;100.00;101002.84;5002500;28;20295;-78
2023/05/10 06:27:44;;;;;;;3.93;2.97;;;;;;;12.25;100.00;101005.75;5002649;28;20623;-78
2023/05/10 06:30:10;;;;;;;3.57;2.90;;;;;;;12.72;100.00;101121.47;5003111;28;20180;-78
2023/05/10 06:32:35;;;;;;;2.80;2.27;;;;;;;13.06;100.00;101123.13;5003590;28;20696;-79
2023/05/10 06:35:01;;;;;;;2.97;2.30;;;;;;;12.46;100.00;101026.22;5002760;28;20682;-78
2023/05/10 06:37:26;;;;;;;3.03;2.20;;;;;;;12.65;100.00;101095.38;5002881;28;20204;-79
2023/05/10 06:39:52;;;;;;;3.00;2.43;;;;;;;12.01;100.00;100995.59;5003729;28;20276;-79
2023/05/10 06:42:17;;;;;;;2.63;2.30;;;;;;;12.89;100.00;101114.63;5002337;28;20244;-78
2023/05/10 06:44:43;;;;;;;2.90;2.60;;;;;;;12.62;100.00;101122.69;5001436;28;20271;-78
2023/05/10 06:47:09;;;;;;;2.30;2.10;;;;;;;12.10;100.00;101011.31;5003486;28;20196;-78
2023/05/10 06:49:34;;;;;;;3.20;2.53;;;;;;;12.36;100.00;101023.97;5005285;28;20262;-78
2023/05/10 06:52:00;;;;;;;3.27;2.40;;;;;;;12.99;100.00;101111.50;5001668;28;20920;-78
2023/05/10 06:54:25;;;;;;;2.80;2.50;;;;;;;13.11;100.00;101118.78;5002518;28;20728;-79
2023/05/10 06:56:51;;;;;;;2.33;2.03;;;;;;;12.94;100.00;101114.03;4999884;28;20609;-78
2023/05/10 06:59:16;;;;;;;2.93;2.63;;;;;;;12.37;100.00;101067.81;5002802;28;20247;-79
2023/05/10 07:01:42;;;;;;;2.70;1.70;;;;;;;12.73;100.00;101107.81;5002812;28;20251;-78
2023/05/10 07:04:08;;;;;;;2.57;1.90;;;;;;;12.71;100.00;101109.06;5003604;28;20753;-78
2023/05/10 07:06:33;;;;;;;3.33;1.50;;;;;;;12.98;100.00;101131.41;5006892;28;20450;-79
2023/05/10 07:09:00;;;;;;;1.73;1.37;;;;;;;11.83;100.00;100947.75;5006672;28;20570;-78
2023/05/10 07:11:26;;;;;;;2.50;1.60;;;;;;;12.94;100.00;101133.69;5006843;28;20476;-78
2023/05/10 07:13:52;;;;;;;1.30;1.20;;;;;;;13.01;100.00;101125.59;5006354;28;20823;-78
2023/05/10 07:16:17;;;;;;;1.70;1.20;;;;;;;12.69;100.00;101093.09;5007389;28;20502;-78
2023/05/10 07:18:42;;;;;;;1.87;1.50;;;;;;;11.97;100.00;101000.53;5006388;28;20658;-79
2023/05/10 07:21:08;;;;;;;3.23;1.40;;;;;;;12.22;100.00;101041.13;5007393;28;20228;-79
2023/05/10 07:23:33;;;;;;;4.63;2.57;;;;;;;12.94;100.00;101135.56;5010191;28;20227;-78
2023/05/10 07:25:59;;;;;;;3.20;2.13;;;;;;;12.80;100.00;101115.88;5006876;28;20614;-79
2023/05/10 07:28:25;;;;;;;2.67;2.03;;;;;;;12.65;100.00;101091.84;5011732;23;20232;-70
2023/05/10 07:30:51;;;;;;;2.37;2.00;;;;;;;12.86;100.00;101121.25;5006169;28;20815;-70
2023/05/10 07:33:16;;;;;;;1.83;1.73;;;;;;;12.49;100.00;101052.72;5003451;28;20211;-70
2023/05/10 07:35:42;;;;;;;2.30;1.63;;;;;;;13.00;100.00;101142.81;5004689;28;20213;-71
2023/05/10 07:38:08;;;;;;;4.33;1.97;;;;;;;12.61;100.00;101083.38;5002827;28;20217;-71
2023/05/10 07:40:33;;;;;;;2.00;1.67;;;;;;;12.66;100.00;101066.59;5005369;28;20189;-70
2023/05/10 07:43:01;;;;;;;2.23;1.40;;;;;;;13.08;100.00;101134.53;5002939;28;20219;-71
2023/05/10 07:45:27;;;;;;;2.03;1.77;;;;;;;13.22;100.00;101138.00;5001195;28;20189;-71
2023/05/10 07:47:52;;;;;;;1.33;1.23;;;;;;;13.25;100.00;101141.16;5005104;28;20966;-71
2023/05/10 07:50:18;;;;;;;1.00;0.80;;;;;;;12.35;100.00;101026.84;5004500;28;20194;-71
2023/05/10 07:52:43;;;;;;;1.20;0.93;;;;;;;13.17;100.00;101138.66;5002331;28;20196;-73
2023/05/10 07:55:09;;;;;;;1.73;1.00;;;;;;;13.19;100.00;101150.06;5002317;28;20611;-73
2023/05/10 07:57:34;;;;;;;1.80;1.33;;;;;;;12.81;100.00;101128.28;5004066;28;20286;-73
2023/05/10 08:00:00;;;;;;;1.60;1.17;;;;;;;13.08;100.00;101166.84;5005684;28;20465;-73
2023/05/10 08:02:26;;;;;;;1.67;1.20;;;;;;;13.15;100.00;101156.88;5004017;28;20212;-73
2023/05/10 08:04:51;;;;;;;1.50;1.40;;;;;;;12.91;100.00;101127.91;5005667;28;20238;-73
2023/05/10 08:07:17;;;;;;;2.00;1.80;;;;;;;12.72;100.00;101098.06;5003559;28;20224;-73
2023/05/10 08:09:42;;;;;;;2.10;1.90;;;;;;;13.05;100.00;101134.94;5004036;28;20181;-73
2023/05/10 08:12:08;;;;;;;4.00;2.80;;;;;;;13.15;100.00;101164.13;5003659;28;20602;-73
2023/05/10 08:14:33;;;;;;;3.20;2.67;;;;;;;12.65;100.00;101076.53;5003817;28;20192;-73
2023/05/10 08:16:59;;;;;;;2.77;2.57;;;;;;;13.10;100.00;101105.50;5001622;28;20210;-73
2023/05/10 08:19:24;;;;;;;3.60;3.30;;;;;;;13.24;100.00;101146.72;5004661;28;20189;-73
2023/05/10 08:21:50;;;;;;;5.87;5.30;;;;;;;12.56;100.00;101083.16;5004127;28;20189;-73
2023/05/10 08:24:15;;;;;;;7.10;6.30;;;;;;;12.92;100.00;101127.69;5002645;28;20289;-73
2023/05/10 08:26:40;;;;;;;6.37;5.73;;;;;;;13.17;100.00;101186.31;5004360;28;20567;-73
2023/05/10 08:29:06;;;;;;;8.57;6.80;;;;;;;12.88;100.00;101170.34;5001708;28;20188;-74
2023/05/10 08:31:31;;;;;;;8.67;6.83;;;;;;;12.53;100.00;101131.19;5001579;28;20217;-73
2023/05/10 08:33:57;;;;;;;8.83;6.30;;;;;;;12.81;100.00;101179.44;5003576;28;20185;-73
2023/05/10 08:36:24;;;;;;;8.03;5.40;;;;;;;12.51;100.00;101152.06;5001800;28;20196;-73
2023/05/10 08:38:53;;;;;;;7.13;5.00;;;;;;;12.92;100.00;101204.94;5002935;28;20201;-73
2023/05/10 08:41:20;;;;;;;7.53;4.50;;;;;;;12.99;100.00;101209.31;5003539;28;20424;-72
2023/05/10 08:43:46;;;;;;;5.73;4.33;;;;;;;12.51;100.00;101142.13;5002599;28;20956;-72
2023/05/10 08:46:17;;;;;;;7.30;4.47;;;;;;;12.81;100.00;101220.63;5001287;28;20447;-73
2023/05/10 08:48:44;;;;;;;6.63;4.00;;;;;;;12.25;100.00;101167.09;5004057;28;20462;-73
2023/05/10 08:51:13;;;;;;;5.27;4.20;;;;;;;12.23;100.00;101150.31;5001618;28;20494;-73
2023/05/10 08:53:39;;;;;;;6.10;3.77;;;;;;;12.54;100.00;101192.03;5003021;28;20503;-73
2023/05/10 08:56:05;;;;;;;9.40;3.47;;;;;;;12.54;100.00;101243.16;5001455;28;20889;-72
2023/05/10 08:58:31;;;;;;;5.33;4.10;;;;;;;12.11;100.00;101190.41;5001316;28;20817;-72
2023/05/10 09:00:57;;;;;;;4.87;3.83;;;;;;;12.71;100.00;101249.81;5003212;28;20459;-72
2023/05/10 09:03:23;;;;;;;5.50;4.20;;;;;;;12.76;100.00;101255.44;5000637;28;20472;-73
2023/05/10 09:05:49;;;;;;;4.73;4.13;;;;;;;12.57;100.00;101251.63;5002958;28;20470;-72
2023/05/10 09:08:18;;;;;;;5.33;4.80;;;;;;;12.25;100.00;101228.97;5004004;28;20208;-72
2023/05/10 09:10:46;;;;;;;4.90;4.40;;;;;;;12.27;100.00;101218.03;5005259;28;20428;-72
2023/05/10 09:13:14;;;;;;;5.00;4.03;;;;;;;12.09;100.00;101216.69;4999446;28;20427;-73
2023/05/10 09:15:39;;;;;;;3.80;3.50;;;;;;;11.65;100.00;101185.59;5001403;28;20523;-72
2023/05/10 09:18:04;;;;;;;4.57;4.17;;;;;;;12.43;100.00;101283.03;5000786;28;20522;-73
2023/05/10 09:20:30;;;;;;;6.03;3.90;;;;;;;12.41;100.00;101289.66;5003448;28;20185;-73
2023/05/10 09:22:56;;;;;;;4.30;3.90;;;;;;;12.40;100.00;101296.88;5003577;28;20740;-73
2023/05/10 09:25:22;;;;;;;4.87;3.60;;;;;;;12.04;100.00;101289.06;5001520;28;20446;-72
2023/05/10 09:27:48;;;;;;;3.77;3.20;;;;;;;12.39;100.00;101294.41;5002185;28;20694;-73
2023/05/10 09:30:26;;;;;;;5.10;3.87;;;;;;;12.48;100.00;101301.28;5000432;28;20424;-72
2023/05/10 09:32:52;;;;;;;3.70;3.30;;;;;;;12.48;100.00;101309.34;4999629;28;20423;-73
2023/05/10 09:35:20;;;;;;;4.60;4.20;;;;;;;12.50;100.00;101322.59;5001741;28;20433;-73
2023/05/10 09:37:48;;;;;;;5.07;4.57;;;;;;;12.64;100.00;101327.88;5000775;28;20952;-73
2023/05/10 09:40:16;;;;;;;5.20;4.70;;;;;;;11.90;100.00;101223.63;5001347;28;20440;-73
2023/05/10 09:42:50;;;;;;;5.07;4.57;;;;;;;12.40;100.00;101318.41;5000805;28;20475;-73
2023/05/10 09:45:15;;;;;;;4.20;3.80;;;;;;;12.34;100.00;101269.97;5002881;28;20482;-73
2023/05/10 09:47:41;;;;;;;4.70;4.20;;;;;;;12.48;100.00;101336.25;5001499;28;20460;-73
2023/05/10 09:50:07;;;;;;;4.90;4.40;;;;;;;12.64;100.00;101341.31;5001960;28;20192;-72
2023/05/10 09:52:53;;;;;;;4.80;4.30;;;;;;;12.10;100.00;101285.56;5002044;28;20689;-72
2023/05/10 09:55:24;;;;;;;5.10;4.20;;;;;;;12.76;100.00;101352.34;5001131;28;20436;-72
2023/05/10 09:57:59;;;;;;;9.27;3.53;;;;;;;12.76;100.00;101348.81;4999765;28;20453;-72
2023/05/10 10:00:24;;;;;;;6.10;4.13;;;;;;;11.97;100.00;101299.75;4999225;28;20967;-72
2023/05/10 10:02:58;;;;;;;6.40;4.30;;;;;;;12.48;100.00;101362.34;5004098;28;20465;-72
2023/05/10 10:05:31;;;;;;;6.93;4.40;;;;;;;12.32;100.00;101293.53;5001332;28;20219;-72
2023/05/10 10:07:58;;;;;;;7.73;4.17;;;;;;;12.31;100.00;101283.81;5001611;28;20448;-72
2023/05/10 10:10:27;;;;;;;6.00;4.40;;;;;;;12.77;100.00;101363.94;5001644;28;20429;-72
2023/05/10 10:12:54;;;;;;;5.77;4.40;;;;;;;12.35;100.00;101291.31;4999640;28;21472;-72
2023/05/10 10:15:24;;;;;;;5.40;3.73;;;;;;;12.82;100.00;101321.91;4999517;28;20467;-73
2023/05/10 10:17:51;;;;;;;4.60;3.90;;;;;;;12.32;100.00;101280.09;5014190;28;20452;-73
2023/05/10 10:20:17;;;;;;;5.43;4.40;;;;;;;12.40;100.00;101288.81;5000608;28;20451;-72
2023/05/10 10:22:43;;;;;;;5.23;4.00;;;;;;;12.42;100.00;101276.00;4999402;28;20463;-72
2023/05/10 10:25:11;;;;;;;4.00;3.40;;;;;;;12.03;100.00;101220.16;5000459;28;20756;-73
2023/05/10 10:27:51;;;;;;;4.17;3.53;;;;;;;12.85;100.00;101343.06;5000428;28;20228;-73
2023/05/10 10:30:43;;;;;;;5.20;3.80;;;;;;;12.76;100.00;101352.34;4999702;28;20462;-73
2023/05/10 10:33:27;;;;;;;3.53;3.03;;;;;;;12.86;100.00;101349.25;4999838;28;20449;-72
2023/05/10 10:35:54;;;;;;;3.60;3.00;;;;;;;13.14;100.00;101348.34;4999254;28;20431;-72
2023/05/10 10:38:20;;;;;;;4.10;3.03;;;;;;;12.89;100.00;101285.06;5000578;28;20452;-73
2023/05/10 10:40:45;;;;;;;2.90;2.57;;;;;;;12.90;100.00;101272.44;4997340;28;20425;-72
2023/05/10 10:43:28;;;;;;;3.40;3.10;;;;;;;12.85;100.00;101283.00;4999620;28;20529;-71
2023/05/10 10:46:17;;;;;;;2.43;2.23;;;;;;;13.06;100.00;101354.72;4999490;28;20193;-72
2023/05/10 10:49:09;;;;;;;3.33;2.63;;;;;;;13.15;100.00;101323.88;4999592;28;20424;-72
2023/05/10 10:51:39;;;;;;;3.10;2.80;;;;;;;12.88;100.00;101252.97;4998183;28;20412;-72
2023/05/10 10:54:11;;;;;;;2.47;2.17;;;;;;;13.16;100.00;101255.50;5004480;28;20509;-71
2023/05/10 10:56:36;;;;;;;3.00;2.20;;;;;;;13.26;100.00;101282.91;4997929;28;20833;-72
2023/05/10 10:59:02;;;;;;;3.30;2.17;;;;;;;13.72;100.00;101322.50;4997829;28;20441;-71
2023/05/10 11:01:36;;;;;;;2.00;1.80;;;;;;;13.86;100.00;101317.13;5000517;28;20263;-72
2023/05/10 11:04:05;;;;;;;2.30;2.10;;;;;;;13.86;100.00;101322.53;5002118;28;20611;-72
2023/05/10 11:06:35;;;;;;;2.57;2.37;;;;;;;13.71;100.00;101325.41;5001282;28;20932;-71
2023/05/10 11:09:08;;;;;;;2.40;2.20;;;;;;;12.91;100.00;101224.81;5000844;28;20428;-72
2023/05/10 11:11:35;;;;;;;2.07;1.87;;;;;;;13.69;100.00;101332.88;4999940;28;20432;-73
2023/05/10 11:14:05;;;;;;;3.50;3.00;;;;;;;13.27;100.00;101303.41;4998485;28;20527;-71
2023/05/10 11:16:44;;;;;;;3.60;3.30;;;;;;;13.28;100.00;101328.50;4998794;28;20428;-71
2023/05/10 11:19:15;;;;;;;3.70;3.40;;;;;;;13.21;100.00;101333.00;4999675;28;20441;-72
2023/05/10 11:22:05;;;;;;;3.50;3.20;;;;;;;13.40;100.00;101326.03;4998935;28;20464;-72